Beroun, Minnesota
Current Conditions -  °F | °C
As of 4:34 AM on Friday 24 Oct 2014 (Local Time) from KROS Reporting Station
Haze Haze  
Wind Chill: 44°   Ceiling: 100
Heat Index: 47°   Visibility: 4mi
Dew Point: 46°   Wind: 7mph
Humidity: 97%   Direction: 150°SSE
Pressure: 29.92"   Gusts: NA
Location:  45.8356°N, 92.9649°W
Report Text: KROS 240934Z AUTO 15006KT 4SM BR OVC001 09/08 A2992 RMK AO2 T00850080
Loading
Personal Weather Stations






























Interactive Weather Map
Tropical Storm Tracking
New forecast layout! Learn more

10-Day Weather Forecast

Advertisements
Track Severe Weather on mobile